Time;durP1;ratioP1;P1;durP2;ratioP2;P2;SDS_P1;SDS_P2;PMS_P1;PMS_P2;Temp;Humidity;BMP_temperature;BMP_pressure;BME280_temperature;BME280_humidity;BME280_pressure;Samples;Min_cycle;Max_cycle;Signal;HPM_P1;HPM_P2
2022/10/10 06:55:48;;;;;;;12.75;7.58;;;;;;;13.78;86.05;100259.47;1730638;81;21116;-84
2022/10/10 06:58:53;;;;;;;11.48;6.92;;;;;;;13.87;85.68;100242.31;1722901;82;21188;-79
2022/10/10 07:01:59;;;;;;;13.35;6.00;;;;;;;13.85;85.64;100264.52;1728464;82;22192;-80
2022/10/10 07:05:05;;;;;;;10.38;6.05;;;;;;;13.91;85.65;100251.34;1717368;82;21133;-79
2022/10/10 07:08:11;;;;;;;12.28;6.67;;;;;;;14.03;84.58;100244.78;1715028;81;21196;-80
2022/10/10 07:11:17;;;;;;;9.90;6.03;;;;;;;14.07;83.56;100248.84;1719970;82;21328;-79
2022/10/10 07:14:23;;;;;;;7.62;5.65;;;;;;;14.08;83.27;100251.05;1714290;81;21213;-84
2022/10/10 07:17:28;;;;;;;13.53;5.87;;;;;;;14.11;82.86;100254.77;1729011;81;21225;-77
2022/10/10 07:20:34;;;;;;;7.85;5.62;;;;;;;14.44;82.53;100252.22;1723532;81;21228;-82
2022/10/10 07:23:40;;;;;;;6.78;5.20;;;;;;;14.45;81.57;100230.55;1719686;82;21235;-78
2022/10/10 07:26:45;;;;;;;7.72;5.37;;;;;;;14.72;80.01;100242.55;1719625;81;21235;-79
2022/10/10 07:29:55;;;;;;;16.82;6.12;;;;;;;14.86;79.52;100241.55;1714665;82;21213;-83
2022/10/10 07:33:00;;;;;;;6.15;5.20;;;;;;;14.92;78.94;100244.03;1714258;81;21478;-79
2022/10/10 07:36:06;;;;;;;8.65;5.25;;;;;;;14.91;79.15;100240.41;1719287;81;21210;-82
2022/10/10 07:39:11;;;;;;;9.65;4.92;;;;;;;14.84;78.18;100228.53;1722138;81;21168;-78
2022/10/10 07:42:19;;;;;;;8.25;5.40;;;;;;;14.70;78.61;100230.38;1718226;81;21692;-79
2022/10/10 07:45:24;;;;;;;8.70;5.17;;;;;;;14.37;80.37;100227.43;1716080;81;21185;-79
2022/10/10 07:48:30;;;;;;;8.85;5.95;;;;;;;14.42;79.99;100242.80;1713729;81;21248;-78
2022/10/10 07:51:36;;;;;;;7.22;5.87;;;;;;;14.11;81.45;100232.23;1716156;81;21799;-78
2022/10/10 07:54:42;;;;;;;11.88;6.80;;;;;;;14.40;80.38;100225.66;1717036;81;21252;-84
2022/10/10 07:57:49;;;;;;;9.08;7.20;;;;;;;14.35;80.21;100224.05;1723879;81;21191;-80
2022/10/10 08:00:55;;;;;;;11.65;6.62;;;;;;;14.32;80.36;100218.41;1728121;81;21772;-79
2022/10/10 08:04:03;;;;;;;12.63;6.67;;;;;;;14.33;79.65;100222.85;1726961;81;21781;-78
2022/10/10 08:07:12;;;;;;;12.73;5.87;;;;;;;14.16;80.04;100222.00;1729147;81;21175;-84
2022/10/10 08:10:19;;;;;;;11.53;5.65;;;;;;;14.29;79.63;100223.46;1724141;81;21804;-78
2022/10/10 08:13:24;;;;;;;8.90;5.22;;;;;;;14.32;79.87;100221.69;1723769;81;21209;-77
2022/10/10 08:16:31;;;;;;;6.95;4.90;;;;;;;14.36;80.60;100214.73;1737187;81;21196;-78
2022/10/10 08:19:36;;;;;;;7.92;5.40;;;;;;;14.32;80.57;100228.04;1727296;81;21282;-77
2022/10/10 08:22:44;;;;;;;7.65;5.78;;;;;;;14.36;80.02;100222.98;1721133;81;21207;-77
2022/10/10 08:25:56;;;;;;;12.50;5.05;;;;;;;14.37;79.23;100221.93;1716804;81;21312;-82
2022/10/10 08:29:02;;;;;;;9.13;4.50;;;;;;;14.43;79.20;100205.97;1725085;81;21259;-83
2022/10/10 08:32:09;;;;;;;10.28;5.12;;;;;;;14.49;79.28;100229.98;1717889;81;21719;-78
2022/10/10 08:35:14;;;;;;;8.63;4.00;;;;;;;14.63;79.51;100221.23;1720799;81;21235;-83
2022/10/10 08:38:23;;;;;;;10.25;4.30;;;;;;;14.76;77.65;100220.45;1733946;81;21708;-78
2022/10/10 08:41:45;;;;;;;7.53;4.17;;;;;;;14.86;77.13;100218.14;1725992;81;21161;-77
2022/10/10 08:44:56;;;;;;;6.65;3.90;;;;;;;15.01;76.74;100216.63;1724669;81;21267;-83
2022/10/10 08:48:07;;;;;;;8.18;3.17;;;;;;;15.22;74.89;100221.13;1721194;81;21637;-78
2022/10/10 08:51:19;;;;;;;5.12;3.02;;;;;;;15.30;74.35;100222.31;1726213;81;21158;-83
2022/10/10 08:54:25;;;;;;;4.22;2.92;;;;;;;15.37;73.17;100212.66;1719807;81;21737;-83
2022/10/10 08:57:42;;;;;;;5.35;2.95;;;;;;;15.46;73.78;100221.89;1719422;81;21189;-84
2022/10/10 09:01:07;;;;;;;8.50;2.52;;;;;;;15.51;72.50;100219.35;1717128;81;21942;-84
2022/10/10 09:04:14;;;;;;;7.72;2.75;;;;;;;15.55;72.67;100218.41;1730874;81;21208;-79
2022/10/10 09:07:39;;;;;;;10.38;2.60;;;;;;;15.48;72.69;100219.80;1722056;81;21245;-84
2022/10/10 09:11:06;;;;;;;4.10;2.27;;;;;;;15.34;72.80;100213.95;1725898;81;21176;-83
2022/10/10 09:14:32;;;;;;;6.22;2.50;;;;;;;15.37;73.08;100230.05;1720784;81;21181;-83
2022/10/10 09:18:07;;;;;;;5.40;2.62;;;;;;;15.38;73.68;100205.55;1723316;81;21621;-84
2022/10/10 09:21:25;;;;;;;4.67;2.33;;;;;;;15.36;72.00;100223.37;1727878;81;21589;-84
2022/10/10 09:24:55;;;;;;;11.12;2.65;;;;;;;15.15;71.18;100227.13;1719921;81;21188;-84
2022/10/10 09:28:12;;;;;;;7.17;2.95;;;;;;;15.07;73.20;100215.26;1730343;81;21208;-83
2022/10/10 09:31:44;;;;;;;3.33;2.95;;;;;;;15.35;72.57;100217.02;1721802;81;21749;-78
2022/10/10 09:35:13;;;;;;;4.15;2.35;;;;;;;15.41;70.65;100212.03;1729639;81;21696;-78
2022/10/10 09:38:44;;;;;;;4.20;2.35;;;;;;;15.36;71.31;100245.42;1734058;81;21314;-84
2022/10/10 09:42:03;;;;;;;8.20;2.25;;;;;;;15.42;72.00;100220.61;1730551;81;21183;-83
2022/10/10 09:45:10;;;;;;;7.17;1.90;;;;;;;15.29;70.90;100244.89;1721926;81;21235;-84
2022/10/10 09:48:15;;;;;;;5.45;2.15;;;;;;;15.27;70.63;100238.72;1733081;81;21757;-84
2022/10/10 09:51:24;;;;;;;3.80;2.25;;;;;;;15.24;71.10;100235.52;1728013;81;21883;-84
2022/10/10 09:54:32;;;;;;;5.53;1.98;;;;;;;15.26;71.35;100222.41;1718812;81;21154;-78
2022/10/10 09:57:44;;;;;;;5.12;1.98;;;;;;;15.26;70.93;100223.25;1710650;82;21209;-78
2022/10/10 10:00:52;;;;;;;2.90;2.02;;;;;;;15.26;71.26;100229.30;1725337;81;21415;-83
2022/10/10 10:04:22;;;;;;;2.33;2.05;;;;;;;15.39;70.58;100217.45;1728147;81;21474;-83
2022/10/10 10:07:37;;;;;;;4.45;1.87;;;;;;;15.42;70.34;100217.02;1734951;81;21231;-83
2022/10/10 10:10:43;;;;;;;2.85;2.25;;;;;;;15.41;70.18;100220.30;1728743;81;21307;-77
2022/10/10 10:13:48;;;;;;;2.37;1.70;;;;;;;15.56;69.17;100218.72;1723524;81;21832;-78
2022/10/10 10:16:54;;;;;;;4.47;1.90;;;;;;;15.64;69.69;100224.07;1707969;81;21266;-78
2022/10/10 10:20:00;;;;;;;3.33;2.17;;;;;;;15.69;69.53;100220.68;1723050;81;21193;-84
2022/10/10 10:23:06;;;;;;;3.17;1.87;;;;;;;15.71;68.06;100222.68;1716918;81;21789;-83
2022/10/10 10:26:23;;;;;;;4.78;2.40;;;;;;;15.64;67.88;100214.42;1717958;81;21251;-83
2022/10/10 10:29:41;;;;;;;4.75;2.62;;;;;;;15.64;69.04;100217.71;1717233;81;21736;-83
2022/10/10 10:33:03;;;;;;;5.03;2.40;;;;;;;15.73;70.22;100224.72;1722307;81;21890;-83
2022/10/10 10:36:25;;;;;;;6.22;1.90;;;;;;;15.40;71.49;100202.08;1708181;81;21845;-77
2022/10/10 10:39:55;;;;;;;3.70;2.10;;;;;;;15.16;72.60;100203.52;1722652;81;21198;-77
2022/10/10 10:43:31;;;;;;;4.83;2.58;;;;;;;14.82;74.16;100224.62;1728718;81;21748;-83
2022/10/10 10:47:15;;;;;;;3.58;2.02;;;;;;;14.46;75.80;100222.09;1728285;81;21188;-83
2022/10/10 10:50:49;;;;;;;7.37;1.90;;;;;;;14.12;78.18;100226.23;1727736;81;21255;-83
2022/10/10 10:54:32;;;;;;;4.12;1.75;;;;;;;13.81;80.41;100244.81;1735797;81;21244;-78
2022/10/10 10:58:14;;;;;;;3.80;1.80;;;;;;;13.57;83.19;100239.75;1728387;81;21209;-77
2022/10/10 11:01:29;;;;;;;2.65;1.10;;;;;;;13.41;84.74;100230.38;1722164;81;21228;-82
2022/10/10 11:05:07;;;;;;;1.60;1.00;;;;;;;13.23;85.57;100230.86;1726997;81;21188;-82
2022/10/10 11:08:44;;;;;;;7.00;1.42;;;;;;;13.08;87.85;100221.28;1739651;81;21260;-78
2022/10/10 11:12:28;;;;;;;11.03;2.33;;;;;;;12.77;92.18;100236.11;1734518;81;21279;-79
2022/10/10 11:15:37;;;;;;;15.75;2.05;;;;;;;12.44;95.56;100227.46;1730535;81;21840;-82
2022/10/10 11:18:50;;;;;;;2.47;1.22;;;;;;;12.22;99.89;100232.00;1716454;81;21772;-81
2022/10/10 11:22:01;;;;;;;3.40;1.82;;;;;;;11.95;100.00;100244.48;1710157;81;21493;-82
2022/10/10 11:25:16;;;;;;;1.87;1.50;;;;;;;11.72;100.00;100228.57;1722130;81;21215;-84
2022/10/10 11:28:31;;;;;;;2.35;1.60;;;;;;;11.61;100.00;100250.91;1728904;81;21761;-83
2022/10/10 11:32:14;;;;;;;1.62;1.45;;;;;;;11.53;100.00;100245.01;1732654;81;21235;-77
2022/10/10 11:35:39;;;;;;;1.12;1.00;;;;;;;11.57;100.00;100243.58;1721364;81;21780;-83
2022/10/10 11:38:52;;;;;;;1.30;1.20;;;;;;;11.62;100.00;100241.16;1735163;81;21573;-82
2022/10/10 11:42:07;;;;;;;1.07;1.00;;;;;;;11.64;100.00;100222.64;1724047;81;21261;-77
2022/10/10 11:45:34;;;;;;;1.25;0.95;;;;;;;11.36;100.00;100249.75;1729224;81;21184;-83
2022/10/10 11:48:55;;;;;;;1.85;1.30;;;;;;;11.46;100.00;100251.72;1722649;81;21243;-83
2022/10/10 11:52:18;;;;;;;2.17;1.50;;;;;;;11.41;100.00;100254.68;1736994;81;21729;-78
2022/10/10 11:55:33;;;;;;;2.17;1.50;;;;;;;11.37;100.00;100257.45;1736661;82;21216;-83
2022/10/10 11:58:57;;;;;;;3.35;1.57;;;;;;;11.33;100.00;100252.84;1700483;82;21229;-82
2022/10/10 12:02:05;;;;;;;1.25;1.15;;;;;;;11.42;100.00;100253.12;1739201;81;22062;-83
2022/10/10 12:05:11;;;;;;;1.70;1.27;;;;;;;11.51;100.00;100252.02;1718470;82;21215;-78
2022/10/10 12:08:23;;;;;;;2.65;1.30;;;;;;;11.24;100.00;100255.30;1725641;82;21244;-82
2022/10/10 12:11:37;;;;;;;1.95;1.50;;;;;;;10.99;100.00;100236.31;1726546;81;21173;-83
2022/10/10 12:14:44;;;;;;;3.20;1.62;;;;;;;10.97;100.00;100258.07;1719265;81;21192;-79
2022/10/10 12:17:50;;;;;;;2.47;1.62;;;;;;;11.04;100.00;100249.98;1731458;82;21197;-84
2022/10/10 12:20:57;;;;;;;2.98;1.65;;;;;;;11.01;100.00;100267.63;1702615;82;21208;-85
2022/10/10 12:24:18;;;;;;;4.37;1.90;;;;;;;10.96;100.00;100258.59;1686452;83;21785;-77
2022/10/10 12:27:50;;;;;;;3.33;1.70;;;;;;;10.90;100.00;100253.81;1673758;84;21832;-82
2022/10/10 12:31:16;;;;;;;3.50;1.57;;;;;;;10.85;100.00;100260.86;1727358;82;21801;-84
2022/10/10 12:34:24;;;;;;;2.62;1.80;;;;;;;10.97;100.00;100238.91;1734042;82;21810;-84
2022/10/10 12:37:39;;;;;;;5.50;1.87;;;;;;;10.91;100.00;100256.03;1718252;82;21235;-83
2022/10/10 12:41:19;;;;;;;4.50;2.33;;;;;;;10.91;100.00;100269.72;1727804;82;21165;-84
2022/10/10 12:44:36;;;;;;;5.30;2.72;;;;;;;10.83;100.00;100256.95;1737123;82;21248;-83
2022/10/10 12:47:50;;;;;;;8.43;2.90;;;;;;;10.81;100.00;100258.99;1734640;82;21217;-79
2022/10/10 12:51:06;;;;;;;2.75;2.30;;;;;;;10.80;100.00;100268.23;1724120;81;21181;-77
2022/10/10 12:54:12;;;;;;;5.05;2.98;;;;;;;10.78;100.00;100262.62;1724549;82;21174;-85
2022/10/10 12:57:28;;;;;;;3.92;2.62;;;;;;;10.79;100.00;100267.06;1724663;82;21845;-84
2022/10/10 13:00:51;;;;;;;4.20;2.83;;;;;;;10.92;100.00;100270.92;1725259;82;21300;-77
2022/10/10 13:03:59;;;;;;;9.53;2.90;;;;;;;10.89;100.00;100270.42;1721639;82;21185;-77
2022/10/10 13:07:06;;;;;;;6.45;3.17;;;;;;;11.14;100.00;100272.48;1706875;84;21773;-79
2022/10/10 13:10:28;;;;;;;7.03;2.90;;;;;;;11.19;100.00;100275.02;1707314;82;21671;-78
2022/10/10 13:13:35;;;;;;;5.00;3.05;;;;;;;11.31;100.00;100276.83;1703427;83;22091;-82
2022/10/10 13:16:46;;;;;;;5.30;2.87;;;;;;;11.40;100.00;100267.52;1705580;84;21773;-78
2022/10/10 13:19:52;;;;;;;3.12;2.42;;;;;;;11.00;100.00;100266.75;1701840;84;21256;-79
2022/10/10 13:22:51;;;;;;;3.85;2.20;;;;;;;10.84;100.00;100248.22;1702892;84;21212;-84
2022/10/10 13:25:57;;;;;;;3.30;2.20;;;;;;;10.65;100.00;100274.13;1703157;83;21773;-85
2022/10/10 13:29:04;;;;;;;4.15;2.40;;;;;;;10.72;100.00;100270.48;1703526;83;21840;-83
2022/10/10 13:32:23;;;;;;;5.85;1.77;;;;;;;10.78;100.00;100262.11;1707319;83;21204;-77
2022/10/10 13:35:33;;;;;;;6.30;1.67;;;;;;;10.78;100.00;100270.31;1707526;82;21279;-77
2022/10/10 13:38:38;;;;;;;4.05;1.72;;;;;;;10.65;100.00;100290.03;1708851;84;21884;-84
2022/10/10 13:41:44;;;;;;;4.75;1.77;;;;;;;10.58;100.00;100286.28;1711400;84;21189;-84
2022/10/10 13:44:59;;;;;;;2.17;1.50;;;;;;;10.54;100.00;100281.34;1707800;83;21220;-83
2022/10/10 13:48:13;;;;;;;2.55;1.45;;;;;;;10.45;100.00;100277.29;1705760;83;21236;-83
2022/10/10 13:51:21;;;;;;;2.58;1.30;;;;;;;10.52;100.00;100286.14;1630359;87;21861;-76
2022/10/10 13:54:51;;;;;;;2.85;1.52;;;;;;;10.54;100.00;100284.08;1646406;86;21824;-85
2022/10/10 13:57:58;;;;;;;3.12;1.95;;;;;;;10.39;100.00;100273.88;1646702;87;21260;-78
2022/10/10 14:01:08;;;;;;;3.83;1.70;;;;;;;10.32;100.00;100281.09;1647208;87;21220;-86
2022/10/10 14:04:19;;;;;;;;;;;;;;;10.31;100.00;100284.00;1648441;87;21232;-85
2022/10/10 14:07:33;;;;;;;2.75;1.82;;;;;;;10.25;100.00;100282.80;1641180;85;20202;-85
2022/10/10 14:10:39;;;;;;;2.08;1.70;;;;;;;10.14;100.00;100281.78;1646475;87;21220;-76
2022/10/10 14:13:46;;;;;;;2.95;1.62;;;;;;;10.39;100.00;100279.86;1645062;87;21272;-76
2022/10/10 14:16:52;;;;;;;3.15;2.20;;;;;;;10.32;100.00;100286.55;1646584;85;21201;-76
2022/10/10 14:19:57;;;;;;;3.75;2.55;;;;;;;10.14;100.00;100289.98;1647695;87;21225;-78
2022/10/10 14:23:03;;;;;;;8.98;2.42;;;;;;;10.15;100.00;100293.89;1646971;87;21761;-77
2022/10/10 14:26:10;;;;;;;4.95;2.72;;;;;;;10.31;100.00;100290.33;1707885;82;21543;-86
2022/10/10 14:29:19;;;;;;;6.92;2.62;;;;;;;10.22;100.00;100292.19;1707139;84;21754;-84
2022/10/10 14:32:26;;;;;;;6.47;2.80;;;;;;;10.26;100.00;100293.22;1710089;83;21267;-86
2022/10/10 14:35:32;;;;;;;4.75;2.72;;;;;;;10.36;100.00;100287.06;1704196;84;21232;-78
2022/10/10 14:38:38;;;;;;;5.65;3.42;;;;;;;10.38;100.00;100295.93;1712071;84;21244;-86
2022/10/10 14:41:44;;;;;;;5.37;3.47;;;;;;;10.16;100.00;100284.70;1707755;84;21242;-78
2022/10/10 14:44:50;;;;;;;6.65;2.92;;;;;;;10.28;100.00;100296.13;1706820;83;21197;-78
2022/10/10 14:47:55;;;;;;;4.40;3.02;;;;;;;10.28;100.00;100289.30;1706031;82;21210;-86
2022/10/10 14:51:00;;;;;;;6.33;3.60;;;;;;;10.16;100.00;100296.11;1704675;83;21216;-85
2022/10/10 14:54:08;;;;;;;5.40;3.90;;;;;;;10.10;100.00;100299.03;1703794;84;21192;-86
2022/10/10 14:57:14;;;;;;;4.92;4.05;;;;;;;10.16;100.00;100289.28;1709178;84;21244;-84
2022/10/10 15:00:23;;;;;;;4.85;3.92;;;;;;;10.07;100.00;100297.16;1706009;84;21279;-78
2022/10/10 15:03:29;;;;;;;7.12;4.35;;;;;;;10.10;100.00;100296.81;1708708;84;21184;-84
2022/10/10 15:06:34;;;;;;;5.90;4.10;;;;;;;10.15;100.00;100293.05;1695703;84;21192;-84
2022/10/10 15:09:42;;;;;;;4.87;4.05;;;;;;;10.14;100.00;100307.23;1699519;84;21209;-84
2022/10/10 15:12:50;;;;;;;4.83;4.33;;;;;;;10.26;100.00;100299.56;1710744;84;21188;-79
2022/10/10 15:15:57;;;;;;;5.97;4.00;;;;;;;10.10;100.00;100305.02;1704235;84;21208;-78
2022/10/10 15:19:02;;;;;;;6.33;4.28;;;;;;;10.10;100.00;100308.59;1705450;83;21243;-84
2022/10/10 15:22:08;;;;;;;5.30;3.50;;;;;;;10.22;100.00;100302.27;1706301;84;21767;-78
2022/10/10 15:25:14;;;;;;;4.78;3.25;;;;;;;10.24;100.00;100313.39;1702623;84;21177;-77
2022/10/10 15:28:20;;;;;;;5.00;3.60;;;;;;;10.36;100.00;100297.48;1703055;83;21225;-77
2022/10/10 15:31:29;;;;;;;5.00;4.03;;;;;;;10.33;100.00;100307.39;1703409;83;21201;-77
2022/10/10 15:34:35;;;;;;;7.10;2.90;;;;;;;10.33;100.00;100305.17;1705812;84;21205;-77
2022/10/10 15:37:41;;;;;;;6.05;3.20;;;;;;;10.31;100.00;100309.98;1709683;83;21216;-78
2022/10/10 15:40:51;;;;;;;6.17;3.17;;;;;;;10.32;100.00;100313.89;1707047;83;21201;-78
2022/10/10 15:44:00;;;;;;;5.20;3.30;;;;;;;10.45;100.00;100310.11;1710295;84;21258;-78
2022/10/10 15:47:06;;;;;;;4.10;3.27;;;;;;;10.36;100.00;100317.14;1705726;84;21240;-78
2022/10/10 15:50:12;;;;;;;6.90;3.30;;;;;;;10.35;100.00;100312.19;1704133;83;21737;-86
2022/10/10 15:53:20;;;;;;;4.20;3.20;;;;;;;10.26;100.00;100329.64;1702119;84;21208;-84
2022/10/10 15:56:26;;;;;;;5.40;3.40;;;;;;;10.31;100.00;100325.86;1705786;84;21236;-78
2022/10/10 15:59:32;;;;;;;9.03;3.02;;;;;;;10.34;100.00;100332.84;1705904;84;21251;-85
2022/10/10 16:02:39;;;;;;;4.78;3.58;;;;;;;10.38;100.00;100335.06;1705906;83;21220;-85
2022/10/10 16:05:47;;;;;;;6.00;3.40;;;;;;;10.29;100.00;100329.27;1705308;84;21240;-78
2022/10/10 16:08:54;;;;;;;6.17;4.03;;;;;;;10.36;100.00;100323.45;1706928;84;21244;-79
2022/10/10 16:12:01;;;;;;;6.55;3.85;;;;;;;10.31;100.00;100345.00;1705936;84;21185;-79
2022/10/10 16:15:06;;;;;;;6.20;4.30;;;;;;;10.19;100.00;100349.08;1702289;84;21753;-85
2022/10/10 16:18:13;;;;;;;6.03;4.20;;;;;;;10.22;100.00;100339.17;1707469;84;21240;-83
2022/10/10 16:21:23;;;;;;;5.80;4.62;;;;;;;10.21;100.00;100347.05;1710045;82;21724;-85
2022/10/10 16:24:29;;;;;;;6.15;3.92;;;;;;;10.27;100.00;100362.78;1709417;84;21753;-85
2022/10/10 16:27:35;;;;;;;13.83;4.65;;;;;;;10.26;100.00;100331.00;1709943;84;21200;-85
2022/10/10 16:30:41;;;;;;;7.95;4.87;;;;;;;10.39;100.00;100329.08;1708331;84;21215;-85
2022/10/10 16:33:49;;;;;;;6.65;4.28;;;;;;;10.32;100.00;100339.87;1700776;84;21813;-79
2022/10/10 16:36:55;;;;;;;5.72;4.08;;;;;;;10.45;100.00;100337.45;1706258;83;21795;-83
2022/10/10 16:40:03;;;;;;;9.20;4.28;;;;;;;10.49;100.00;100348.87;1706205;84;21285;-83
2022/10/10 16:43:08;;;;;;;7.20;4.25;;;;;;;10.44;100.00;100350.80;1704508;82;21196;-83
2022/10/10 16:46:15;;;;;;;7.60;4.05;;;;;;;10.52;100.00;100356.73;1706208;84;21188;-78
2022/10/10 16:49:22;;;;;;;8.40;3.87;;;;;;;10.64;100.00;100356.72;1706013;84;21188;-77
2022/10/10 16:52:31;;;;;;;7.90;4.33;;;;;;;10.64;100.00;100351.76;1708099;83;21752;-84
2022/10/10 16:55:38;;;;;;;8.05;3.37;;;;;;;10.60;100.00;100355.87;1710698;84;21228;-78
2022/10/10 16:58:45;;;;;;;9.25;4.30;;;;;;;10.62;100.00;100362.86;1706910;84;21208;-79
2022/10/10 17:01:52;;;;;;;7.95;3.45;;;;;;;10.61;100.00;100359.79;1709874;83;21228;-85
2022/10/10 17:04:57;;;;;;;5.20;3.45;;;;;;;10.56;100.00;100366.81;1709977;82;22696;-79
2022/10/10 17:08:02;;;;;;;4.78;3.40;;;;;;;10.55;100.00;100361.02;1708425;83;21196;-86
2022/10/10 17:11:08;;;;;;;5.60;3.20;;;;;;;10.60;100.00;100357.23;1707878;83;21236;-78
2022/10/10 17:14:15;;;;;;;8.48;3.80;;;;;;;10.54;100.00;100371.59;1707770;84;21205;-78
2022/10/10 17:17:21;;;;;;;5.25;3.40;;;;;;;10.38;100.00;100376.59;1705751;84;21228;-77
2022/10/10 17:20:28;;;;;;;4.33;3.40;;;;;;;10.35;100.00;100370.97;1711097;83;21740;-78
2022/10/10 17:23:34;;;;;;;9.78;4.33;;;;;;;10.27;100.00;100372.34;1708235;84;21748;-77
2022/10/10 17:26:40;;;;;;;6.83;4.47;;;;;;;10.27;100.00;100373.71;1709028;82;21777;-83
2022/10/10 17:29:46;;;;;;;9.08;4.53;;;;;;;10.37;100.00;100381.21;1702176;84;21200;-84
2022/10/10 17:32:52;;;;;;;8.50;3.83;;;;;;;10.47;100.00;100372.30;1708565;84;21252;-77
2022/10/10 17:35:59;;;;;;;9.98;4.05;;;;;;;10.58;100.00;100365.59;1711612;83;21730;-77
2022/10/10 17:39:06;;;;;;;6.53;3.55;;;;;;;10.56;100.00;100364.09;1705205;82;21185;-77
2022/10/10 17:42:12;;;;;;;7.78;3.52;;;;;;;10.36;100.00;100378.14;1703805;82;21188;-85
2022/10/10 17:45:17;;;;;;;8.03;3.58;;;;;;;10.38;100.00;100376.08;1705490;83;21197;-83
2022/10/10 17:48:23;;;;;;;8.25;4.70;;;;;;;10.32;100.00;100375.41;1704551;84;21208;-84
2022/10/10 17:51:29;;;;;;;11.43;4.05;;;;;;;10.33;100.00;100368.06;1701976;84;21793;-84
2022/10/10 17:54:34;;;;;;;7.55;4.20;;;;;;;10.51;100.00;100369.23;1707975;84;21697;-78
2022/10/10 17:57:40;;;;;;;9.53;4.22;;;;;;;10.49;100.00;100374.36;1702654;83;21180;-77
2022/10/10 18:00:47;;;;;;;8.73;3.80;;;;;;;10.41;100.00;100375.73;1709978;83;21208;-77
2022/10/10 18:03:52;;;;;;;13.30;4.15;;;;;;;10.48;100.00;100376.73;1705115;83;21237;-78
2022/10/10 18:06:58;;;;;;;13.72;5.00;;;;;;;10.49;100.00;100377.09;1703773;84;21772;-79
2022/10/10 18:10:03;;;;;;;9.48;4.72;;;;;;;10.33;100.00;100386.68;1705961;84;21196;-84
2022/10/10 18:13:08;;;;;;;8.15;4.22;;;;;;;10.32;100.00;100378.14;1706450;82;21212;-84
2022/10/10 18:16:21;;;;;;;14.45;5.08;;;;;;;10.36;100.00;100386.86;1707717;84;21184;-81
2022/10/10 18:19:26;;;;;;;8.28;4.15;;;;;;;10.20;100.00;100384.95;1708598;84;21201;-79
2022/10/10 18:22:32;;;;;;;6.15;3.33;;;;;;;10.23;100.00;100389.56;1710385;84;21279;-84
2022/10/10 18:25:37;;;;;;;7.37;3.45;;;;;;;10.34;100.00;100373.86;1704149;82;21762;-79
2022/10/10 18:28:45;;;;;;;12.18;3.33;;;;;;;10.34;100.00;100363.77;1708350;84;21732;-78
2022/10/10 18:31:51;;;;;;;10.03;3.25;;;;;;;10.33;100.00;100367.55;1710581;84;21312;-82
2022/10/10 18:34:56;;;;;;;4.50;2.80;;;;;;;10.24;100.00;100376.78;1708759;84;21259;-83
2022/10/10 18:38:03;;;;;;;11.38;3.37;;;;;;;10.47;100.00;100371.45;1706957;83;21777;-78
2022/10/10 18:41:14;;;;;;;6.17;3.47;;;;;;;10.44;100.00;100373.16;1701488;84;21180;-78
2022/10/10 18:44:22;;;;;;;8.50;2.95;;;;;;;10.58;100.00;100363.38;1705253;83;21188;-83
2022/10/10 18:47:27;;;;;;;6.00;3.25;;;;;;;10.53;100.00;100379.47;1710869;84;21209;-84
2022/10/10 18:50:33;;;;;;;10.20;3.75;;;;;;;10.41;100.00;100361.22;1706609;83;21207;-84
2022/10/10 18:53:44;;;;;;;11.55;3.12;;;;;;;10.54;100.00;100371.59;1704926;83;21212;-78
2022/10/10 18:56:50;;;;;;;8.15;3.12;;;;;;;10.55;100.00;100367.86;1706970;83;21748;-78
2022/10/10 18:59:56;;;;;;;8.48;3.50;;;;;;;10.59;100.00;100361.02;1711224;84;21251;-84
2022/10/10 19:03:01;;;;;;;7.50;2.85;;;;;;;10.57;100.00;100360.31;1706348;84;21240;-84
2022/10/10 19:06:10;;;;;;;11.10;2.87;;;;;;;10.67;100.00;100348.14;1704405;84;21193;-84
2022/10/10 19:09:18;;;;;;;7.30;2.65;;;;;;;10.63;100.00;100344.56;1709566;84;21212;-79
2022/10/10 19:12:24;;;;;;;12.00;3.05;;;;;;;10.70;100.00;100347.80;1699525;83;21738;-79
2022/10/10 19:15:29;;;;;;;13.80;3.85;;;;;;;10.76;100.00;100350.33;1704944;84;21789;-78
2022/10/10 19:18:35;;;;;;;10.90;3.15;;;;;;;10.60;100.00;100343.56;1707044;83;21731;-78
2022/10/10 19:21:45;;;;;;;7.35;3.02;;;;;;;10.61;99.79;100343.38;1700828;83;21248;-83
2022/10/10 19:24:53;;;;;;;16.40;3.75;;;;;;;10.69;98.74;100338.41;1705887;84;21729;-79
2022/10/10 19:27:57;;;;;;;4.85;3.00;;;;;;;10.65;98.98;100337.05;1711248;82;21737;-83
2022/10/10 19:31:03;;;;;;;6.55;2.40;;;;;;;10.50;98.68;100328.72;1707760;83;21181;-84
2022/10/10 19:34:09;;;;;;;9.53;2.62;;;;;;;10.38;99.10;100346.00;1702292;84;21800;-84
2022/10/10 19:37:19;;;;;;;6.42;2.98;;;;;;;10.51;98.50;100335.89;1708293;84;21197;-78
2022/10/10 19:40:25;;;;;;;8.38;2.77;;;;;;;10.35;98.81;100347.73;1708687;84;21199;-84
2022/10/10 19:43:30;;;;;;;7.78;3.20;;;;;;;10.21;99.06;100347.05;1708364;84;21200;-83
2022/10/10 19:46:35;;;;;;;13.20;2.80;;;;;;;10.20;99.12;100339.84;1707381;83;21247;-79
2022/10/10 19:49:41;;;;;;;7.87;2.85;;;;;;;10.19;99.10;100343.61;1709286;84;21264;-84
2022/10/10 19:52:47;;;;;;;15.53;3.35;;;;;;;10.11;99.59;100337.62;1709277;81;21713;-82
2022/10/10 19:56:05;;;;;;;13.35;3.02;;;;;;;10.14;99.96;100337.81;1710953;82;21228;-84
2022/10/10 19:59:10;;;;;;;7.10;3.20;;;;;;;10.23;99.28;100334.89;1702193;84;21185;-82
2022/10/10 20:02:17;;;;;;;7.08;2.90;;;;;;;10.29;98.69;100342.94;1704169;84;21820;-78
2022/10/10 20:05:23;;;;;;;8.93;3.35;;;;;;;10.32;98.18;100333.03;1707670;82;21216;-83
2022/10/10 20:08:28;;;;;;;7.33;2.37;;;;;;;10.39;97.52;100323.61;1704510;82;21192;-83
2022/10/10 20:11:36;;;;;;;5.87;2.72;;;;;;;10.36;97.48;100319.88;1706368;84;21255;-79
2022/10/10 20:14:41;;;;;;;7.37;2.87;;;;;;;10.27;97.89;100310.84;1707919;84;21256;-84
2022/10/10 20:17:49;;;;;;;14.23;3.10;;;;;;;10.15;98.12;100321.75;1707423;84;21205;-79
2022/10/10 20:20:58;;;;;;;7.97;2.35;;;;;;;10.09;98.81;100308.27;1707405;84;21227;-84
2022/10/10 20:24:08;;;;;;;12.45;2.80;;;;;;;10.14;98.79;100317.31;1708755;83;21238;-80
2022/10/10 20:27:16;;;;;;;8.73;2.83;;;;;;;10.15;98.79;100309.45;1712157;82;21232;-84
2022/10/10 20:30:24;;;;;;;7.53;2.60;;;;;;;9.90;99.20;100301.29;1698753;84;21185;-79
2022/10/10 20:33:31;;;;;;;13.55;2.70;;;;;;;9.85;100.00;100296.01;1712791;82;21176;-84
2022/10/10 20:36:38;;;;;;;7.65;2.67;;;;;;;9.90;100.00;100290.88;1702762;84;21212;-80
2022/10/10 20:39:45;;;;;;;7.55;2.30;;;;;;;9.94;100.00;100290.88;1698204;84;21172;-80
2022/10/10 20:42:50;;;;;;;10.63;2.90;;;;;;;10.06;99.64;100285.38;1705641;84;21228;-84
2022/10/10 20:45:56;;;;;;;6.30;2.20;;;;;;;10.05;99.33;100287.77;1704247;84;21188;-82
2022/10/10 20:49:03;;;;;;;8.60;2.70;;;;;;;10.01;99.64;100280.94;1704607;84;21483;-83
2022/10/10 20:52:10;;;;;;;7.60;2.25;;;;;;;10.00;99.80;100292.91;1706270;84;21185;-77
2022/10/10 20:55:16;;;;;;;6.53;2.67;;;;;;;9.96;100.00;100282.83;1707581;84;21752;-78
2022/10/10 20:58:23;;;;;;;6.10;2.50;;;;;;;9.91;100.00;100284.37;1706961;82;21232;-84
2022/10/10 21:01:30;;;;;;;4.53;2.47;;;;;;;9.89;100.00;100287.81;1703388;83;21789;-83
2022/10/10 21:04:36;;;;;;;9.03;2.85;;;;;;;9.90;100.00;100286.78;1706930;84;21280;-78
2022/10/10 21:07:44;;;;;;;8.08;3.17;;;;;;;9.89;100.00;100294.13;1708378;84;21266;-86
2022/10/10 21:10:50;;;;;;;8.60;2.80;;;;;;;9.77;100.00;100280.46;1706687;84;21192;-79
2022/10/10 21:14:00;;;;;;;8.75;2.90;;;;;;;9.79;100.00;100293.45;1706571;83;22913;-84
2022/10/10 21:17:05;;;;;;;9.90;2.87;;;;;;;9.73;100.00;100279.09;1709144;84;21750;-78
2022/10/10 21:20:12;;;;;;;8.70;2.75;;;;;;;9.70;100.00;100278.09;1696855;84;21181;-79
2022/10/10 21:23:19;;;;;;;8.65;3.35;;;;;;;9.82;100.00;100276.70;1704841;83;21216;-83
2022/10/10 21:26:29;;;;;;;9.88;2.75;;;;;;;9.79;100.00;100277.06;1706087;83;21180;-79
2022/10/10 21:29:34;;;;;;;6.53;3.35;;;;;;;9.79;100.00;100277.06;1708553;82;21220;-79
2022/10/10 21:32:39;;;;;;;5.47;2.70;;;;;;;9.73;100.00;100284.05;1705224;84;21197;-85